KALI

Alice International Airport

Alice, Texas, USA
METAR KALI 132353Z AUTO 31024G38KT 10SM CLR 14/02 A2991 RMK AO2 PK WND 31038/2348 SLP128 T01440017 10261 20144 51043
Observed Flight Rules
Dec-13 @ 23:53 UTC (52 minutes ago) Visual Flight Rules
Wind Visibility Clouds
310° at 24 knots
 Gusting to 38 knots
10 miles
  • Clear skies
Temperatures Readings
Current 14°C / 57°F
Dewpoint 2°C / 36°F
Humidity 44%
Altimeter 29.91" Hg
Pressure 1012.8 hPa
Elevation 53
METAR KALI 132353Z AUTO 31024G38KT 10SM CLR 14/02 A2991 RMK AO2 PK WND 31038/2348 SLP128 T01440017 10261 20144 51043
Observed Flight Rules
Dec-13 @ 23:53 UTC
(52 minutes ago)
VFR
Wind Visibility
310° at 24 knots
 Gusting to 38 knots
10 miles
Clouds
  • Clear skies
Temperature Dewpoint
14°C / 57°F 2°C / 36°F
Humidity Altimeter Pressure
44% 29.91" Hg 1012.8 hPa